createdAt,value
2019-02-26T00:01:34.931Z,38.13
2019-02-26T00:04:04.732Z,37.63
2019-02-26T00:06:34.483Z,39.10
2019-02-26T00:09:06.848Z,39.40
2019-02-26T00:11:38.419Z,37.93
2019-02-26T00:14:08.118Z,41.40
2019-02-26T00:16:39.963Z,38.40
2019-02-26T00:19:09.831Z,38.57
2019-02-26T00:21:40.885Z,38.10
2019-02-26T00:24:12.816Z,41.00
2019-02-26T00:26:43.491Z,39.43
2019-02-26T00:29:13.580Z,39.27
2019-02-26T00:31:46.048Z,38.47
2019-02-26T00:34:16.877Z,41.60
2019-02-26T00:36:46.564Z,39.13
2019-02-26T00:39:16.278Z,39.00
2019-02-26T00:41:49.320Z,39.10
2019-02-26T00:44:18.614Z,40.57
2019-02-26T00:46:48.887Z,39.77
2019-02-26T00:49:19.110Z,39.20
2019-02-26T00:51:52.401Z,38.20
2019-02-26T00:54:24.306Z,36.80
2019-02-26T00:56:53.034Z,37.27
2019-02-26T00:59:22.765Z,36.60
2019-02-26T01:01:54.490Z,37.53
2019-02-26T01:04:24.510Z,32.87
2019-02-26T01:06:54.217Z,38.10
2019-02-26T01:09:25.179Z,35.67
2019-02-26T01:11:55.448Z,37.13
2019-02-26T01:14:25.234Z,37.10
2019-02-26T01:16:54.997Z,33.33
2019-02-26T01:19:24.716Z,35.27
2019-02-26T01:21:54.426Z,34.70
2019-02-26T01:24:25.857Z,36.03
2019-02-26T01:26:55.572Z,35.67
2019-02-26T01:29:27.632Z,34.60
2019-02-26T01:31:56.777Z,35.90
2019-02-26T01:34:26.503Z,33.07
2019-02-26T01:36:56.228Z,34.03
2019-02-26T01:39:26.043Z,34.13
2019-02-26T01:41:56.258Z,34.63
2019-02-26T01:44:30.182Z,36.27
2019-02-26T01:47:00.878Z,37.37
2019-02-26T01:49:30.176Z,34.43
2019-02-26T01:52:00.009Z,40.50
2019-02-26T01:54:30.525Z,41.17
2019-02-26T01:57:01.177Z,42.47
2019-02-26T01:59:31.710Z,43.80
2019-02-26T02:02:02.302Z,41.07
2019-02-26T02:04:34.110Z,38.37
2019-02-26T02:07:05.833Z,42.00
2019-02-26T02:09:35.109Z,40.30
2019-02-26T02:12:07.126Z,38.60
2019-02-26T02:14:36.306Z,41.00
2019-02-26T02:17:08.350Z,38.47
2019-02-26T02:19:37.694Z,38.53
2019-02-26T02:22:07.474Z,40.47
2019-02-26T02:24:39.234Z,39.67
2019-02-26T02:27:08.856Z,39.20
2019-02-26T02:29:41.832Z,40.90
2019-02-26T02:32:10.253Z,37.43
2019-02-26T02:34:42.886Z,39.80
2019-02-26T02:37:11.483Z,40.93
2019-02-26T02:39:41.200Z,38.90
2019-02-26T02:42:13.323Z,38.30
2019-02-26T02:44:44.849Z,37.10
2019-02-26T02:47:13.784Z,38.57
2019-02-26T02:49:44.370Z,38.90
2019-02-26T02:52:14.260Z,39.93
2019-02-26T02:54:47.019Z,39.77
2019-02-26T02:57:15.496Z,39.57
2019-02-26T02:59:45.354Z,38.60
2019-02-26T03:02:17.396Z,43.67
2019-02-26T03:04:46.530Z,40.63
2019-02-26T03:07:17.814Z,41.47
2019-02-26T03:09:47.744Z,41.27
2019-02-26T03:12:17.651Z,41.87
2019-02-26T03:14:47.638Z,41.80
2019-02-26T03:17:20.134Z,42.53
2019-02-26T03:19:49.006Z,41.27
2019-02-26T03:22:21.589Z,44.47
2019-02-26T03:24:53.805Z,47.27
2019-02-26T03:27:23.496Z,38.43
2019-02-26T03:29:56.230Z,44.07
2019-02-26T03:32:25.499Z,44.93
2019-02-26T03:34:55.398Z,48.87
2019-02-26T03:37:25.914Z,43.07
2019-02-26T03:39:58.069Z,48.57
2019-02-26T03:42:28.577Z,44.10
2019-02-26T03:44:59.619Z,48.63
2019-02-26T03:47:30.868Z,48.73
2019-02-26T03:50:00.578Z,47.10
2019-02-26T03:52:32.128Z,46.47
2019-02-26T03:55:03.331Z,45.13
2019-02-26T03:57:33.741Z,49.70
2019-02-26T04:00:08.185Z,45.67
2019-02-26T04:02:37.514Z,47.40
2019-02-26T04:05:10.736Z,42.20
2019-02-26T04:07:40.512Z,48.50
2019-02-26T04:10:13.794Z,48.87
2019-02-26T04:12:45.049Z,46.63
2019-02-26T04:15:24.316Z,48.40
2019-02-26T04:17:52.711Z,48.40
2019-02-26T04:20:22.450Z,46.27
2019-02-26T04:22:53.308Z,42.90
2019-02-26T04:25:44.891Z,45.40
2019-02-26T04:28:33.016Z,43.97
2019-02-26T04:31:10.248Z,41.23
2019-02-26T04:34:08.532Z,43.77
2019-02-26T04:37:04.776Z,44.83
2019-02-26T04:39:44.962Z,43.97
2019-02-26T04:42:38.394Z,46.47
2019-02-26T04:45:14.201Z,48.67
2019-02-26T04:47:56.981Z,47.00
2019-02-26T04:50:28.699Z,46.73
2019-02-26T04:52:59.115Z,44.33
2019-02-26T04:55:29.724Z,43.83
2019-02-26T04:57:58.812Z,42.50
2019-02-26T05:00:30.390Z,44.13
2019-02-26T05:02:59.985Z,47.60
2019-02-26T05:05:32.020Z,44.77
2019-02-26T05:08:04.055Z,44.27
2019-02-26T05:10:34.334Z,43.30
2019-02-26T05:13:07.380Z,45.07
2019-02-26T05:15:35.686Z,43.63
2019-02-26T05:18:05.477Z,42.63
2019-02-26T05:20:36.794Z,39.23
2019-02-26T05:23:06.752Z,39.20
2019-02-26T05:25:39.238Z,43.07
2019-02-26T05:28:10.070Z,40.93
2019-02-26T05:30:40.435Z,39.13
2019-02-26T05:33:11.100Z,39.50
2019-02-26T05:35:43.555Z,40.20
2019-02-26T05:38:12.255Z,39.73
2019-02-26T05:40:42.851Z,40.33
2019-02-26T05:43:13.599Z,39.17
2019-02-26T05:45:43.301Z,42.53
2019-02-26T05:48:15.340Z,40.67
2019-02-26T05:50:44.800Z,38.60
2019-02-26T05:53:14.552Z,39.67
2019-02-26T05:55:47.559Z,40.23
2019-02-26T05:58:18.666Z,38.97
2019-02-26T06:00:47.016Z,36.87
2019-02-26T06:03:18.604Z,37.03
2019-02-26T06:05:48.948Z,39.90
2019-02-26T06:08:19.359Z,38.90
2019-02-26T06:10:49.006Z,37.37
2019-02-26T06:13:18.712Z,39.47
2019-02-26T06:15:51.273Z,38.13
2019-02-26T06:18:21.001Z,38.13
2019-02-26T06:20:51.719Z,37.20
2019-02-26T06:23:23.148Z,37.47
2019-02-26T06:25:55.998Z,38.30
2019-02-26T06:28:25.727Z,38.93
2019-02-26T06:30:55.385Z,41.37
2019-02-26T06:33:25.064Z,40.00
2019-02-26T06:35:55.319Z,37.97
2019-02-26T06:38:28.062Z,38.10
2019-02-26T06:40:57.412Z,40.63
2019-02-26T06:43:27.108Z,38.57
2019-02-26T06:45:56.826Z,39.23
2019-02-26T06:48:29.195Z,42.13
2019-02-26T06:50:59.866Z,40.10
2019-02-26T06:53:29.277Z,40.27
2019-02-26T06:56:00.771Z,40.07
2019-02-26T06:58:30.419Z,39.70
2019-02-26T07:01:00.153Z,38.87
2019-02-26T07:03:29.848Z,39.47
2019-02-26T07:06:01.715Z,41.53
2019-02-26T07:08:31.246Z,41.83
2019-02-26T07:11:00.955Z,44.43
2019-02-26T07:13:30.688Z,42.13
2019-02-26T07:16:04.605Z,42.17
2019-02-26T07:18:31.952Z,42.30
2019-02-26T07:21:01.625Z,39.97
2019-02-26T07:23:35.194Z,43.50
2019-02-26T07:26:04.711Z,43.10
2019-02-26T07:28:34.359Z,45.13
2019-02-26T07:31:05.512Z,43.80
2019-02-26T07:33:37.059Z,47.17
2019-02-26T07:36:07.148Z,48.60
2019-02-26T07:38:41.324Z,49.07
2019-02-26T07:41:08.438Z,48.30
2019-02-26T07:43:41.094Z,48.73
2019-02-26T07:46:12.150Z,49.30
2019-02-26T07:48:41.334Z,45.27
2019-02-26T07:51:11.085Z,48.07
2019-02-26T07:53:44.404Z,47.17
2019-02-26T07:56:12.252Z,48.23
2019-02-26T07:58:43.126Z,46.60
2019-02-26T08:01:13.014Z,48.43
2019-02-26T08:03:43.900Z,50.67
2019-02-26T08:06:14.255Z,49.37
2019-02-26T08:08:44.934Z,45.37
2019-02-26T08:11:15.573Z,47.97
2019-02-26T08:13:45.290Z,46.80
2019-02-26T08:16:15.008Z,44.70
2019-02-26T08:18:44.655Z,44.97
2019-02-26T08:21:14.327Z,42.47
2019-02-26T08:23:46.025Z,43.63
2019-02-26T08:26:17.294Z,44.77
2019-02-26T08:28:48.229Z,42.97
2019-02-26T08:31:20.523Z,43.07
2019-02-26T08:33:51.692Z,41.70
2019-02-26T08:36:21.137Z,41.57
2019-02-26T08:38:52.059Z,39.33
2019-02-26T08:41:21.870Z,40.67
2019-02-26T08:43:53.970Z,41.23
2019-02-26T08:46:23.096Z,40.87
2019-02-26T08:48:52.840Z,40.13
2019-02-26T08:51:22.568Z,38.23
2019-02-26T08:53:54.691Z,38.47
2019-02-26T08:56:26.213Z,39.43
2019-02-26T08:58:55.286Z,39.70
2019-02-26T09:01:24.981Z,38.80
2019-02-26T09:03:55.932Z,38.83
2019-02-26T09:06:26.136Z,40.37
2019-02-26T09:08:57.939Z,38.90
2019-02-26T09:11:28.795Z,38.43
2019-02-26T09:13:59.398Z,38.37
2019-02-26T09:16:30.426Z,36.53
2019-02-26T09:19:01.168Z,37.03
2019-02-26T09:21:30.844Z,37.60
2019-02-26T09:24:04.208Z,35.23
2019-02-26T09:26:31.994Z,35.43
2019-02-26T09:29:01.807Z,33.83
2019-02-26T09:31:31.583Z,34.20
2019-02-26T09:34:01.272Z,34.10
2019-02-26T09:36:31.099Z,35.93
2019-02-26T09:39:00.781Z,33.53
2019-02-26T09:41:30.706Z,34.43
2019-02-26T09:44:03.844Z,32.50
2019-02-26T09:46:35.878Z,33.93
2019-02-26T09:49:05.108Z,33.00
2019-02-26T09:51:35.317Z,33.17
2019-02-26T09:54:06.120Z,32.23
2019-02-26T09:56:35.889Z,31.77
2019-02-26T09:59:07.144Z,31.53
2019-02-26T10:01:37.844Z,30.20
2019-02-26T10:04:08.455Z,29.40
2019-02-26T10:06:40.541Z,29.53
2019-02-26T10:09:12.780Z,30.57
2019-02-26T10:11:42.435Z,30.83
2019-02-26T10:14:12.697Z,33.53
2019-02-26T10:16:44.556Z,33.73
2019-02-26T10:19:17.097Z,32.90
2019-02-26T10:21:46.420Z,34.00
2019-02-26T10:24:18.398Z,33.40
2019-02-26T10:26:47.500Z,32.67
2019-02-26T10:29:17.153Z,32.97
2019-02-26T10:31:46.858Z,34.57
2019-02-26T10:34:19.141Z,35.53
2019-02-26T10:36:51.281Z,36.20
2019-02-26T10:39:20.818Z,35.43
2019-02-26T10:41:50.669Z,36.93
2019-02-26T10:44:20.545Z,35.80
2019-02-26T10:46:50.264Z,37.27
2019-02-26T10:49:20.044Z,37.40
2019-02-26T10:51:49.669Z,36.80
2019-02-26T10:54:19.410Z,38.47
2019-02-26T10:56:49.037Z,37.70
2019-02-26T10:59:19.675Z,38.07
2019-02-26T11:01:52.036Z,39.93
2019-02-26T11:04:20.922Z,41.97
2019-02-26T11:06:50.621Z,40.40
2019-02-26T11:09:25.403Z,41.00
2019-02-26T11:11:51.613Z,39.27
2019-02-26T11:14:21.394Z,40.73
2019-02-26T11:16:51.087Z,41.40
2019-02-26T11:19:20.898Z,41.43
2019-02-26T11:21:55.560Z,42.17
2019-02-26T11:24:23.477Z,40.30
2019-02-26T11:26:53.396Z,40.23
2019-02-26T11:29:23.140Z,39.60
2019-02-26T11:31:52.835Z,40.77
2019-02-26T11:34:22.530Z,41.30
2019-02-26T11:36:54.165Z,39.50
2019-02-26T11:39:23.782Z,39.10
2019-02-26T11:41:54.571Z,39.33
2019-02-26T11:44:25.770Z,38.53
2019-02-26T11:46:56.596Z,37.60
2019-02-26T11:49:26.384Z,38.13
2019-02-26T11:51:56.058Z,39.60
2019-02-26T11:54:31.219Z,38.43
2019-02-26T11:56:58.120Z,37.53
2019-02-26T11:59:27.837Z,39.23
2019-02-26T12:01:59.142Z,37.87
2019-02-26T12:04:29.017Z,37.53
2019-02-26T12:07:01.044Z,36.67
2019-02-26T12:09:32.948Z,34.27
2019-02-26T12:12:03.469Z,37.03
2019-02-26T12:14:34.746Z,36.13
2019-02-26T12:17:04.381Z,34.57
2019-02-26T12:19:34.947Z,33.23
2019-02-26T12:22:06.073Z,33.67
2019-02-26T12:24:36.251Z,32.87
2019-02-26T12:27:07.312Z,34.20
2019-02-26T12:29:37.271Z,33.07
2019-02-26T12:32:06.993Z,31.67
2019-02-26T12:34:38.487Z,31.70
2019-02-26T12:37:11.160Z,30.47
2019-02-26T12:39:39.520Z,31.50
2019-02-26T12:42:10.561Z,26.67
2019-02-26T12:44:44.825Z,28.07
2019-02-26T12:47:14.684Z,28.63
2019-02-26T12:49:45.138Z,28.53
2019-02-26T12:52:16.086Z,28.73
2019-02-26T12:54:46.365Z,28.57
2019-02-26T12:57:19.081Z,28.50
2019-02-26T12:59:47.587Z,31.53
2019-02-26T13:02:20.793Z,30.17
2019-02-26T13:04:51.150Z,30.13
2019-02-26T13:07:20.266Z,30.23
2019-02-26T13:09:54.687Z,29.93
2019-02-26T13:12:24.158Z,30.63
2019-02-26T13:14:56.482Z,31.83
2019-02-26T13:17:28.191Z,35.07
2019-02-26T13:19:58.954Z,34.73
2019-02-26T13:22:28.152Z,34.27
2019-02-26T13:25:00.247Z,34.00
2019-02-26T13:27:30.236Z,35.50
2019-02-26T13:30:00.090Z,34.27
2019-02-26T13:32:32.154Z,33.47
2019-02-26T13:35:07.404Z,33.97
2019-02-26T13:37:36.592Z,33.80
2019-02-26T13:40:13.410Z,35.07
2019-02-26T13:42:49.907Z,34.87
2019-02-26T13:45:17.050Z,33.77
2019-02-26T13:47:46.994Z,35.37
2019-02-26T13:50:27.533Z,35.17
2019-02-26T13:52:57.346Z,33.97
2019-02-26T13:55:27.128Z,34.23
2019-02-26T13:57:56.837Z,34.53
2019-02-26T14:00:27.164Z,35.73
2019-02-26T14:02:56.889Z,34.77
2019-02-26T14:05:26.545Z,35.10
2019-02-26T14:07:56.301Z,35.83
2019-02-26T14:10:26.698Z,36.43
2019-02-26T14:12:56.650Z,36.00
2019-02-26T14:15:27.543Z,32.27
2019-02-26T14:17:57.450Z,33.87
2019-02-26T14:20:27.248Z,33.53
2019-02-26T14:22:56.942Z,33.00
2019-02-26T14:25:26.719Z,34.33
2019-02-26T14:27:56.496Z,33.20
2019-02-26T14:30:26.276Z,32.27
2019-02-26T14:32:56.104Z,32.00
2019-02-26T14:35:25.930Z,33.70
2019-02-26T14:37:57.166Z,34.30
2019-02-26T14:40:26.806Z,33.57
2019-02-26T14:42:56.535Z,34.90
2019-02-26T14:45:27.331Z,36.93
2019-02-26T14:47:57.025Z,35.13
2019-02-26T14:50:27.068Z,34.30
2019-02-26T14:52:56.783Z,34.90
2019-02-26T14:55:26.493Z,36.27
2019-02-26T14:57:56.177Z,35.13
2019-02-26T15:00:29.799Z,35.00
2019-02-26T15:02:59.460Z,37.77
2019-02-26T15:05:29.107Z,35.97
2019-02-26T15:07:58.769Z,34.47
2019-02-26T15:10:28.564Z,33.87
2019-02-26T15:12:58.399Z,34.73
2019-02-26T15:15:28.110Z,34.13
2019-02-26T15:17:57.782Z,35.03
2019-02-26T15:20:30.156Z,35.13
2019-02-26T15:22:59.874Z,36.97
2019-02-26T15:25:31.432Z,35.23
2019-02-26T15:28:05.629Z,35.03
2019-02-26T15:30:35.448Z,35.07
2019-02-26T15:33:11.195Z,34.83
2019-02-26T15:35:36.584Z,35.60
2019-02-26T15:38:06.306Z,33.57
2019-02-26T15:40:35.942Z,35.63
2019-02-26T15:43:05.701Z,32.90
2019-02-26T15:45:35.510Z,34.37
2019-02-26T15:48:05.288Z,35.00
2019-02-26T15:50:34.998Z,35.97
2019-02-26T15:53:04.661Z,33.53
2019-02-26T15:55:34.477Z,35.13
2019-02-26T15:58:06.700Z,34.13
2019-02-26T16:00:37.677Z,33.63
2019-02-26T16:03:07.287Z,35.93
2019-02-26T16:05:40.525Z,34.50
2019-02-26T16:08:10.406Z,34.60
2019-02-26T16:10:40.320Z,34.43
2019-02-26T16:13:10.055Z,33.67
2019-02-26T16:15:40.150Z,34.13
2019-02-26T16:18:10.008Z,33.10
2019-02-26T16:20:41.353Z,32.87
2019-02-26T16:23:11.220Z,34.77
2019-02-26T16:25:40.863Z,33.50
2019-02-26T16:28:27.327Z,38.13
2019-02-26T16:30:59.879Z,36.73
2019-02-26T16:33:29.713Z,37.40
2019-02-26T16:35:59.375Z,33.17
2019-02-26T16:38:29.071Z,32.37
2019-02-26T16:40:58.733Z,30.83
2019-02-26T16:43:28.385Z,31.43
2019-02-26T16:46:00.165Z,32.00
2019-02-26T16:48:29.855Z,28.97
2019-02-26T16:50:59.800Z,29.40
2019-02-26T16:53:33.485Z,29.43
2019-02-26T16:56:01.317Z,28.87
2019-02-26T16:58:35.207Z,29.87
2019-02-26T17:01:05.828Z,29.57
2019-02-26T17:03:35.537Z,29.83
2019-02-26T17:06:05.495Z,28.43
2019-02-26T17:08:35.527Z,30.37
2019-02-26T17:11:05.327Z,30.47
2019-02-26T17:13:35.333Z,29.57
2019-02-26T17:16:05.000Z,29.87
2019-02-26T17:18:34.899Z,29.23
2019-02-26T17:21:04.769Z,28.80
2019-02-26T17:23:34.376Z,30.97
2019-02-26T17:26:04.310Z,29.10
2019-02-26T17:28:33.947Z,30.73
2019-02-26T17:31:03.660Z,31.33
2019-02-26T17:33:33.302Z,28.70
2019-02-26T17:36:02.994Z,26.30
2019-02-26T17:38:32.643Z,25.10
2019-02-26T17:41:04.485Z,28.40
2019-02-26T17:43:34.176Z,26.50
2019-02-26T17:46:04.040Z,25.10
2019-02-26T17:48:43.100Z,25.93
2019-02-26T17:51:05.059Z,24.97
2019-02-26T17:53:34.737Z,26.27
2019-02-26T17:56:05.310Z,24.80
2019-02-26T17:58:35.010Z,25.03
2019-02-26T18:01:05.325Z,25.73
2019-02-26T18:03:35.201Z,26.93
2019-02-26T18:06:04.842Z,26.67
2019-02-26T18:08:34.608Z,24.87
2019-02-26T18:11:04.689Z,25.47
2019-02-26T18:13:37.416Z,26.90
2019-02-26T18:16:09.881Z,26.70
2019-02-26T18:18:38.815Z,26.73
2019-02-26T18:21:08.480Z,26.83
2019-02-26T18:23:38.341Z,26.03
2019-02-26T18:26:09.427Z,23.97
2019-02-26T18:28:39.028Z,28.33
2019-02-26T18:31:08.763Z,26.43
2019-02-26T18:33:38.592Z,25.77
2019-02-26T18:36:08.271Z,23.67
2019-02-26T18:38:37.932Z,26.57
2019-02-26T18:41:07.751Z,25.40
2019-02-26T18:43:37.394Z,27.47
2019-02-26T18:46:08.623Z,26.47
2019-02-26T18:48:38.478Z,28.27
2019-02-26T18:51:08.205Z,26.27
2019-02-26T18:53:38.062Z,28.67
2019-02-26T18:56:08.891Z,28.00
2019-02-26T18:58:38.564Z,26.97
2019-02-26T19:01:08.189Z,27.07
2019-02-26T19:03:39.330Z,26.87
2019-02-26T19:06:10.520Z,27.57
2019-02-26T19:08:41.549Z,24.90
2019-02-26T19:11:16.515Z,28.27
2019-02-26T19:13:42.941Z,27.90
2019-02-26T19:16:12.793Z,28.43
2019-02-26T19:18:42.585Z,28.23
2019-02-26T19:21:12.295Z,26.80
2019-02-26T19:23:42.210Z,27.27
2019-02-26T19:26:13.724Z,28.07
2019-02-26T19:28:43.386Z,28.80
2019-02-26T19:31:13.076Z,25.20
2019-02-26T19:33:42.743Z,27.97
2019-02-26T19:36:12.966Z,29.10
2019-02-26T19:38:43.302Z,28.77
2019-02-26T19:41:15.641Z,26.60
2019-02-26T19:43:45.284Z,26.97
2019-02-26T19:46:18.065Z,27.53
2019-02-26T19:48:47.713Z,28.90
2019-02-26T19:51:22.945Z,27.80
2019-02-26T19:53:52.881Z,26.70
2019-02-26T19:56:23.783Z,27.23
2019-02-26T19:58:55.157Z,28.20
2019-02-26T20:01:25.863Z,28.27
2019-02-26T20:03:56.218Z,25.07
2019-02-26T20:06:26.871Z,26.53
2019-02-26T20:24:37.255Z,26.10
2019-02-26T20:27:07.512Z,27.53
2019-02-26T20:29:37.250Z,24.73
2019-02-26T20:32:06.965Z,26.03
2019-02-26T20:34:36.626Z,26.00
2019-02-26T20:37:06.278Z,25.60
2019-02-26T20:39:35.918Z,27.57
2019-02-26T20:42:05.565Z,25.77
2019-02-26T20:44:35.393Z,26.73
2019-02-26T20:47:05.034Z,26.27
2019-02-26T20:49:34.706Z,26.17
2019-02-26T20:52:04.350Z,25.73
2019-02-26T20:54:34.036Z,25.40
2019-02-26T20:57:04.444Z,25.67
2019-02-26T20:59:34.133Z,26.93
2019-02-26T21:02:03.857Z,23.93
2019-02-26T21:04:33.549Z,24.73
2019-02-26T21:07:03.274Z,26.83
2019-02-26T21:09:33.010Z,27.63
2019-02-26T21:12:02.778Z,28.07
2019-02-26T21:14:32.443Z,27.97
2019-02-26T21:17:02.179Z,26.73
2019-02-26T21:19:35.551Z,25.30
2019-02-26T21:22:03.337Z,22.77
2019-02-26T21:24:34.615Z,26.50
2019-02-26T21:27:04.506Z,26.23
2019-02-26T21:29:34.216Z,26.13
2019-02-26T21:32:03.942Z,26.77
2019-02-26T21:34:33.658Z,26.53
2019-02-26T21:37:03.361Z,25.03
2019-02-26T21:39:33.077Z,25.80
2019-02-26T21:42:02.852Z,26.03
2019-02-26T21:44:32.606Z,25.63
2019-02-26T21:47:02.924Z,25.33
2019-02-26T21:49:32.653Z,25.33
2019-02-26T21:52:04.150Z,26.37
2019-02-26T21:54:34.138Z,23.73
2019-02-26T21:57:03.868Z,24.80
2019-02-26T21:59:33.526Z,24.20
2019-02-26T22:02:03.226Z,25.27
2019-02-26T22:04:32.895Z,27.00
2019-02-26T22:07:02.487Z,25.30
2019-02-26T22:09:32.105Z,26.37
2019-02-26T22:12:01.734Z,24.60
2019-02-26T22:14:31.352Z,28.57
2019-02-26T22:17:00.990Z,26.70
2019-02-26T22:19:30.608Z,25.73
2019-02-26T22:22:00.239Z,26.27
2019-02-26T22:24:29.856Z,24.10
2019-02-26T22:27:00.250Z,25.50
2019-02-26T22:29:30.045Z,27.30
2019-02-26T22:32:02.419Z,26.47
2019-02-26T22:34:31.090Z,24.70
2019-02-26T22:37:00.739Z,25.77
2019-02-26T22:39:30.334Z,25.33
2019-02-26T22:41:59.985Z,25.57
2019-02-26T22:44:29.612Z,23.33
2019-02-26T22:46:59.346Z,22.67
2019-02-26T22:49:28.942Z,25.00
2019-02-26T22:51:59.119Z,25.37
2019-02-26T22:54:28.770Z,23.80
2019-02-26T22:56:58.391Z,24.97
2019-02-26T22:59:28.038Z,25.27
2019-02-26T23:01:58.695Z,25.40
2019-02-26T23:04:28.337Z,25.23
2019-02-26T23:06:57.963Z,25.17
2019-02-26T23:09:28.713Z,24.47
2019-02-26T23:12:04.665Z,25.40
2019-02-26T23:14:31.636Z,25.30
2019-02-26T23:17:01.829Z,27.30
2019-02-26T23:19:31.481Z,27.37
2019-02-26T23:22:08.357Z,24.17
2019-02-26T23:24:38.036Z,26.37
2019-02-26T23:27:07.725Z,25.87
2019-02-26T23:29:40.347Z,25.13
2019-02-26T23:32:09.991Z,24.97
2019-02-26T23:34:39.645Z,24.17
2019-02-26T23:37:15.280Z,25.40
2019-02-26T23:39:45.190Z,25.57
2019-02-26T23:42:14.898Z,25.50
2019-02-26T23:44:44.542Z,26.13
2019-02-26T23:47:14.154Z,25.63
2019-02-26T23:49:44.845Z,26.27
2019-02-26T23:52:15.157Z,24.47
2019-02-26T23:54:44.804Z,26.07
2019-02-26T23:57:14.495Z,23.93
2019-02-26T23:59:44.152Z,26.00
